createdAt,value
2023-04-02T00:01:00.470Z,8.60
2023-04-02T00:04:05.724Z,8.67
2023-04-02T00:07:33.276Z,8.62
2023-04-02T00:10:38.068Z,8.67
2023-04-02T00:13:43.723Z,8.64
2023-04-02T00:16:46.412Z,8.71
2023-04-02T00:20:00.445Z,8.77
2023-04-02T00:23:04.665Z,8.74
2023-04-02T00:26:23.823Z,8.71
2023-04-02T00:29:26.833Z,8.70
2023-04-02T00:32:31.787Z,8.68
2023-04-02T00:35:38.515Z,8.76
2023-04-02T00:38:43.842Z,8.78
2023-04-02T00:41:47.199Z,8.72
2023-04-02T00:44:51.389Z,8.71
2023-04-02T00:47:54.730Z,8.76
2023-04-02T00:50:59.534Z,8.74
2023-04-02T00:54:04.308Z,8.70
2023-04-02T00:57:13.217Z,8.68
2023-04-02T01:00:18.938Z,8.62
2023-04-02T01:03:23.084Z,8.59
2023-04-02T01:06:29.654Z,8.66
2023-04-02T01:09:32.095Z,8.75
2023-04-02T01:12:44.393Z,8.77
2023-04-02T01:15:52.713Z,8.67
2023-04-02T01:19:14.699Z,8.78
2023-04-02T01:22:43.582Z,8.77
2023-04-02T01:25:59.790Z,8.85
2023-04-02T01:29:02.107Z,8.88
2023-04-02T01:32:06.805Z,8.89
2023-04-02T01:35:09.694Z,8.84
2023-04-02T01:38:19.269Z,8.83
2023-04-02T01:41:33.357Z,8.85
2023-04-02T01:44:48.393Z,8.84
2023-04-02T01:47:51.598Z,8.84
2023-04-02T01:50:55.482Z,8.84
2023-04-02T01:54:00.133Z,8.80
2023-04-02T01:57:03.111Z,8.86
2023-04-02T02:00:13.656Z,8.85
2023-04-02T02:03:16.705Z,8.85
2023-04-02T02:06:20.464Z,8.91
2023-04-02T02:09:25.140Z,8.95
2023-04-02T02:12:28.164Z,8.98
2023-04-02T02:15:33.129Z,8.98
2023-04-02T02:18:36.192Z,8.95
2023-04-02T02:21:41.851Z,8.90
2023-04-02T02:24:44.712Z,8.84
2023-04-02T02:28:02.737Z,8.86
2023-04-02T02:31:09.584Z,8.84
2023-04-02T02:34:18.760Z,8.84
2023-04-02T02:37:27.097Z,8.78
2023-04-02T02:40:34.381Z,8.71
2023-04-02T02:43:47.835Z,8.78
2023-04-02T02:46:52.802Z,8.72
2023-04-02T02:49:58.985Z,8.70
2023-04-02T02:53:04.373Z,8.60
2023-04-02T02:56:08.115Z,8.65
2023-04-02T02:59:12.318Z,8.77
2023-04-02T03:02:16.284Z,8.78
2023-04-02T03:05:22.074Z,8.71
2023-04-02T03:08:32.429Z,8.68
2023-04-02T03:11:35.028Z,8.70
2023-04-02T03:14:44.158Z,8.61
2023-04-02T03:17:49.688Z,8.57
2023-04-02T03:20:52.615Z,8.46
2023-04-02T03:24:03.619Z,8.30
2023-04-02T03:27:06.236Z,8.30
2023-04-02T03:30:14.757Z,8.26
2023-04-02T03:33:21.867Z,8.34
2023-04-02T03:36:25.879Z,8.30
2023-04-02T03:39:35.968Z,8.27
2023-04-02T03:43:13.674Z,8.25
2023-04-02T03:46:16.311Z,8.26
2023-04-02T03:49:20.017Z,8.33
2023-04-02T03:52:25.721Z,8.31
2023-04-02T03:55:30.641Z,8.17
2023-04-02T03:58:38.728Z,8.12
2023-04-02T04:02:04.762Z,7.97
2023-04-02T04:05:18.781Z,7.93
2023-04-02T04:08:25.127Z,7.97
2023-04-02T04:11:32.588Z,8.01
2023-04-02T04:14:37.346Z,7.95
2023-04-02T04:17:54.997Z,8.06
2023-04-02T04:21:02.127Z,8.08
2023-04-02T04:24:17.401Z,8.15
2023-04-02T04:27:36.316Z,8.15
2023-04-02T04:30:47.701Z,8.18
2023-04-02T04:33:55.061Z,8.21
2023-04-02T04:37:01.841Z,8.30
2023-04-02T04:40:16.534Z,8.33
2023-04-02T04:43:39.489Z,8.32
2023-04-02T04:46:56.254Z,8.31
2023-04-02T04:50:08.882Z,8.27
2023-04-02T04:53:23.131Z,8.31
2023-04-02T04:56:28.299Z,8.31
2023-04-02T04:59:51.844Z,8.33
2023-04-02T05:03:20.271Z,8.30
2023-04-02T05:06:41.997Z,8.32
2023-04-02T05:09:59.965Z,8.44
2023-04-02T05:13:07.891Z,8.59
2023-04-02T05:16:23.264Z,8.73
2023-04-02T05:19:32.155Z,8.95
2023-04-02T05:22:44.257Z,9.16
2023-04-02T05:26:05.671Z,9.46
2023-04-02T05:29:15.080Z,9.74
2023-04-02T05:32:29.013Z,9.96
2023-04-02T05:35:34.849Z,10.02
2023-04-02T05:38:39.373Z,10.15
2023-04-02T05:41:44.008Z,10.46
2023-04-02T05:45:05.846Z,10.87
2023-04-02T05:48:20.611Z,12.24
2023-04-02T05:51:31.037Z,15.41
2023-04-02T05:54:38.353Z,17.55
2023-04-02T05:57:51.220Z,17.49
2023-04-02T06:01:12.024Z,15.20
2023-04-02T06:04:27.401Z,13.86
2023-04-02T06:07:34.384Z,13.65
2023-04-02T06:10:47.791Z,13.89
2023-04-02T06:13:50.648Z,14.13
2023-04-02T06:16:53.446Z,17.71
2023-04-02T06:19:57.462Z,22.43
2023-04-02T06:23:18.845Z,24.85
2023-04-02T06:26:22.224Z,26.18
2023-04-02T06:29:34.090Z,25.24
2023-04-02T06:32:37.791Z,25.80
2023-04-02T06:35:41.986Z,23.58
2023-04-02T06:38:46.352Z,21.43
2023-04-02T06:42:12.067Z,20.28
2023-04-02T06:45:22.985Z,20.74
2023-04-02T06:48:26.298Z,22.34
2023-04-02T06:51:31.360Z,22.00
2023-04-02T06:54:34.520Z,22.20
2023-04-02T06:57:37.106Z,22.16
2023-04-02T07:00:47.204Z,21.41
2023-04-02T07:03:50.528Z,20.12
2023-04-02T07:06:54.110Z,18.38
2023-04-02T07:09:57.588Z,19.77
2023-04-02T07:13:02.539Z,19.37
2023-04-02T07:16:05.230Z,18.99
2023-04-02T07:19:16.257Z,19.43
2023-04-02T07:22:19.257Z,20.47
2023-04-02T07:25:26.327Z,20.09
2023-04-02T07:28:29.190Z,18.07
2023-04-02T07:31:31.963Z,18.02
2023-04-02T07:34:34.245Z,17.43
2023-04-02T07:37:37.509Z,17.37
2023-04-02T07:40:39.900Z,17.64
2023-04-02T07:43:42.650Z,18.41
2023-04-02T07:46:44.999Z,18.48
2023-04-02T07:49:47.684Z,18.76
2023-04-02T07:52:50.297Z,18.60
2023-04-02T07:55:53.338Z,17.60
2023-04-02T07:58:55.789Z,17.92
2023-04-02T08:01:58.941Z,18.21
2023-04-02T08:05:01.734Z,18.54
2023-04-02T08:08:04.157Z,19.24
2023-04-02T08:11:06.945Z,20.36
2023-04-02T08:14:09.571Z,20.66
2023-04-02T08:17:12.113Z,20.39
2023-04-02T08:20:17.851Z,19.64
2023-04-02T08:23:21.655Z,18.95
2023-04-02T08:26:24.010Z,17.62
2023-04-02T08:29:29.215Z,16.94
2023-04-02T08:32:31.558Z,17.17
2023-04-02T08:35:34.930Z,16.72
2023-04-02T08:38:37.641Z,16.01
2023-04-02T08:41:53.069Z,16.26
2023-04-02T08:45:20.812Z,16.47
2023-04-02T08:48:27.213Z,16.82
2023-04-02T08:51:32.554Z,17.48
2023-04-02T08:54:42.577Z,18.00
2023-04-02T08:57:51.155Z,19.34
2023-04-02T09:00:55.001Z,19.24
2023-04-02T09:03:58.976Z,18.94
2023-04-02T09:07:01.801Z,18.43
2023-04-02T09:10:04.611Z,18.35
2023-04-02T09:13:13.844Z,17.94
2023-04-02T09:16:21.429Z,18.18
2023-04-02T09:19:30.435Z,17.85
2023-04-02T09:22:33.489Z,16.93
2023-04-02T09:25:36.336Z,16.80
2023-04-02T09:28:38.881Z,16.64
2023-04-02T09:31:46.639Z,16.58
2023-04-02T09:34:49.110Z,16.46
2023-04-02T09:38:10.068Z,16.26
2023-04-02T09:41:21.053Z,16.23
2023-04-02T09:44:27.464Z,16.51
2023-04-02T09:47:31.993Z,16.79
2023-04-02T09:50:35.085Z,16.82
2023-04-02T09:53:40.518Z,16.71
2023-04-02T09:57:01.568Z,16.68
2023-04-02T10:00:32.068Z,16.69
2023-04-02T10:03:35.445Z,16.81
2023-04-02T10:06:48.653Z,17.25
2023-04-02T10:09:57.579Z,17.27
2023-04-02T10:13:18.840Z,16.63
2023-04-02T10:16:21.445Z,16.51
2023-04-02T10:19:26.711Z,16.72
2023-04-02T10:22:29.411Z,16.80
2023-04-02T10:25:36.163Z,16.92
2023-04-02T10:28:45.148Z,16.59
2023-04-02T10:31:47.818Z,16.64
2023-04-02T10:34:56.846Z,16.76
2023-04-02T10:38:14.137Z,16.76
2023-04-02T10:41:16.804Z,17.00
2023-04-02T10:44:36.815Z,17.16
2023-04-02T10:47:49.180Z,16.66
2023-04-02T10:51:06.822Z,16.55
2023-04-02T10:54:16.053Z,16.48
2023-04-02T10:57:36.918Z,16.57
2023-04-02T11:00:41.540Z,16.61
2023-04-02T11:03:50.100Z,16.97
2023-04-02T11:07:11.158Z,16.74
2023-04-02T11:10:19.708Z,17.18
2023-04-02T11:13:36.015Z,17.38
2023-04-02T11:16:41.252Z,16.90
2023-04-02T11:19:46.119Z,16.60
2023-04-02T11:23:04.404Z,16.28
2023-04-02T11:26:28.460Z,16.19
2023-04-02T11:29:31.797Z,15.96
2023-04-02T11:32:42.751Z,15.89
2023-04-02T11:35:45.440Z,15.77
2023-04-02T11:38:51.802Z,15.62
2023-04-02T11:42:02.907Z,15.69
2023-04-02T11:45:21.299Z,16.07
2023-04-02T11:48:23.955Z,16.48
2023-04-02T11:51:32.856Z,16.60
2023-04-02T11:54:37.778Z,16.67
2023-04-02T11:57:49.711Z,17.05
2023-04-02T12:01:19.337Z,17.08
2023-04-02T12:04:28.098Z,17.06
2023-04-02T12:07:35.067Z,17.07
2023-04-02T12:10:56.396Z,17.16
2023-04-02T12:13:59.422Z,17.37
2023-04-02T12:17:14.093Z,17.37
2023-04-02T12:20:21.934Z,17.24
2023-04-02T12:23:29.192Z,17.34
2023-04-02T12:26:38.960Z,17.26
2023-04-02T12:29:41.720Z,17.13
2023-04-02T12:32:44.500Z,16.91
2023-04-02T12:35:48.065Z,16.88
2023-04-02T12:38:51.974Z,16.78
2023-04-02T12:41:54.923Z,16.92
2023-04-02T12:44:57.378Z,16.86
2023-04-02T12:48:03.145Z,17.06
2023-04-02T12:51:05.980Z,17.05
2023-04-02T12:54:14.325Z,16.94
2023-04-02T12:57:36.429Z,16.99
2023-04-02T13:00:39.633Z,16.99
2023-04-02T13:03:42.250Z,16.95
2023-04-02T13:06:52.079Z,16.96
2023-04-02T13:09:55.566Z,16.93
2023-04-02T13:12:59.745Z,17.03
2023-04-02T13:16:17.505Z,16.91
2023-04-02T13:19:28.655Z,16.89
2023-04-02T13:22:31.784Z,16.96
2023-04-02T13:25:36.334Z,16.99
2023-04-02T13:28:39.188Z,17.09
2023-04-02T13:31:41.987Z,16.90
2023-04-02T13:34:44.410Z,16.74
2023-04-02T13:37:47.380Z,16.76
2023-04-02T13:40:50.108Z,16.95
2023-04-02T13:43:57.349Z,16.87
2023-04-02T13:46:59.958Z,16.72
2023-04-02T13:50:02.793Z,16.60
2023-04-02T13:53:09.666Z,16.54
2023-04-02T13:56:13.130Z,16.76
2023-04-02T13:59:16.366Z,16.84
2023-04-02T14:02:22.099Z,16.99
2023-04-02T14:05:31.906Z,17.07
2023-04-02T14:08:34.351Z,17.17
2023-04-02T14:11:52.346Z,16.79
2023-04-02T14:15:08.662Z,16.83
2023-04-02T14:18:11.425Z,16.88
2023-04-02T14:21:32.329Z,16.80
2023-04-02T14:24:49.270Z,16.76
2023-04-02T14:28:10.436Z,16.61
2023-04-02T14:31:32.616Z,16.64
2023-04-02T14:34:54.418Z,16.62
2023-04-02T14:37:59.842Z,16.46
2023-04-02T14:41:10.917Z,16.49
2023-04-02T14:44:13.925Z,16.96
2023-04-02T14:47:16.763Z,16.66
2023-04-02T14:50:28.051Z,16.27
2023-04-02T14:53:41.330Z,16.31
2023-04-02T14:57:18.865Z,16.21
2023-04-02T15:00:32.950Z,15.68
2023-04-02T15:03:43.036Z,14.81
2023-04-02T15:06:47.779Z,14.02
2023-04-02T15:09:54.716Z,13.44
2023-04-02T15:12:57.916Z,13.04
2023-04-02T15:16:20.046Z,12.76
2023-04-02T15:19:22.410Z,12.75
2023-04-02T15:22:34.515Z,12.51
2023-04-02T15:25:54.664Z,12.07
2023-04-02T15:28:57.346Z,11.55
2023-04-02T15:32:02.723Z,11.39
2023-04-02T15:35:23.993Z,11.18
2023-04-02T15:38:46.647Z,10.98
2023-04-02T15:42:07.692Z,10.90
2023-04-02T15:45:25.445Z,10.97
2023-04-02T15:48:34.175Z,10.88
2023-04-02T15:51:44.214Z,10.95
2023-04-02T15:54:55.968Z,11.05
2023-04-02T15:58:08.840Z,11.20
2023-04-02T16:01:16.025Z,11.53
2023-04-02T16:04:37.691Z,11.89
2023-04-02T16:07:58.488Z,12.25
2023-04-02T16:11:01.116Z,12.58
2023-04-02T16:14:09.293Z,12.98
2023-04-02T16:17:32.706Z,13.44
2023-04-02T16:20:37.527Z,13.83
2023-04-02T16:23:40.592Z,14.02
2023-04-02T16:27:07.735Z,14.24
2023-04-02T16:30:25.771Z,14.48
2023-04-02T16:33:34.386Z,14.35
2023-04-02T16:36:51.117Z,14.16
2023-04-02T16:39:53.434Z,14.07
2023-04-02T16:42:56.192Z,13.97
2023-04-02T16:46:11.932Z,13.62
2023-04-02T16:49:21.732Z,13.36
2023-04-02T16:52:30.107Z,13.00
2023-04-02T16:55:35.679Z,12.86
2023-04-02T16:58:57.901Z,12.53
2023-04-02T17:02:27.104Z,12.41
2023-04-02T17:05:29.566Z,12.20
2023-04-02T17:08:41.895Z,11.98
2023-04-02T17:11:53.022Z,11.82
2023-04-02T17:15:11.688Z,11.64
2023-04-02T17:18:26.494Z,11.59
2023-04-02T17:21:31.105Z,11.52
2023-04-02T17:24:39.025Z,11.58
2023-04-02T17:27:44.782Z,11.45
2023-04-02T17:30:49.384Z,11.27
2023-04-02T17:33:52.081Z,11.13
2023-04-02T17:36:54.329Z,10.97
2023-04-02T17:40:04.166Z,10.86
2023-04-02T17:43:06.624Z,10.73
2023-04-02T17:46:23.659Z,10.51
2023-04-02T17:49:26.053Z,10.34
2023-04-02T17:52:34.647Z,10.21
2023-04-02T17:55:47.669Z,10.08
2023-04-02T17:59:06.964Z,9.97
2023-04-02T18:02:12.039Z,9.84
2023-04-02T18:05:18.045Z,9.72
2023-04-02T18:08:33.318Z,9.54
2023-04-02T18:11:43.461Z,9.44
2023-04-02T18:14:58.517Z,9.42
2023-04-02T18:18:12.528Z,9.35
2023-04-02T18:21:15.659Z,9.27
2023-04-02T18:24:30.404Z,9.18
2023-04-02T18:27:38.897Z,9.10
2023-04-02T18:30:44.341Z,9.05
2023-04-02T18:34:13.309Z,8.99
2023-04-02T18:37:33.115Z,8.95
2023-04-02T18:40:35.820Z,8.90
2023-04-02T18:43:47.930Z,8.79
2023-04-02T18:46:52.248Z,8.75
2023-04-02T18:50:03.833Z,8.67
2023-04-02T18:53:14.238Z,8.62
2023-04-02T18:56:19.001Z,8.51
2023-04-02T18:59:41.778Z,8.50
2023-04-02T19:02:48.808Z,8.44
2023-04-02T19:05:55.584Z,8.36
2023-04-02T19:09:02.848Z,8.30
2023-04-02T19:12:21.086Z,8.23
2023-04-02T19:15:27.113Z,8.12
2023-04-02T19:18:38.549Z,8.08
2023-04-02T19:22:01.611Z,7.99
2023-04-02T19:25:25.412Z,7.89
2023-04-02T19:28:32.405Z,7.81
2023-04-02T19:31:41.537Z,7.77
2023-04-02T19:35:01.656Z,7.69
2023-04-02T19:38:19.241Z,7.58
2023-04-02T19:41:22.481Z,7.50
2023-04-02T19:44:24.935Z,7.46
2023-04-02T19:47:27.577Z,7.47
2023-04-02T19:50:30.034Z,7.41
2023-04-02T19:53:33.313Z,7.45
2023-04-02T19:56:35.731Z,7.45
2023-04-02T19:59:38.333Z,7.37
2023-04-02T20:02:40.736Z,7.45
2023-04-02T20:05:43.418Z,7.47
2023-04-02T20:08:45.791Z,7.46
2023-04-02T20:11:48.936Z,7.46
2023-04-02T20:14:51.611Z,7.46
2023-04-02T20:17:54.267Z,7.43
2023-04-02T20:20:56.866Z,7.45
2023-04-02T20:23:59.614Z,7.51
2023-04-02T20:27:01.972Z,7.52
2023-04-02T20:30:04.866Z,7.56
2023-04-02T20:33:07.998Z,7.53
2023-04-02T20:36:13.777Z,7.56
2023-04-02T20:39:19.473Z,7.50
2023-04-02T20:42:22.305Z,7.54
2023-04-02T20:45:27.737Z,7.56
2023-04-02T20:48:33.260Z,7.54
2023-04-02T20:51:35.651Z,7.56
2023-04-02T20:54:38.357Z,7.58
2023-04-02T20:57:41.052Z,7.59
2023-04-02T21:00:44.171Z,7.53
2023-04-02T21:03:46.794Z,7.50
2023-04-02T21:06:49.436Z,7.50
2023-04-02T21:09:54.652Z,7.42
2023-04-02T21:12:57.317Z,7.29
2023-04-02T21:16:00.218Z,7.21
2023-04-02T21:19:05.077Z,7.12
2023-04-02T21:22:07.640Z,7.02
2023-04-02T21:25:10.280Z,6.96
2023-04-02T21:28:12.940Z,6.98
2023-04-02T21:31:16.985Z,7.05
2023-04-02T21:34:19.395Z,7.07
2023-04-02T21:37:22.112Z,7.15
2023-04-02T21:40:24.429Z,7.19
2023-04-02T21:43:26.962Z,7.14
2023-04-02T21:46:31.144Z,7.13
2023-04-02T21:49:33.750Z,7.14
2023-04-02T21:52:36.290Z,7.15
2023-04-02T21:55:38.921Z,7.10
2023-04-02T21:58:43.325Z,7.14
2023-04-02T22:01:47.537Z,7.12
2023-04-02T22:04:51.970Z,7.08
2023-04-02T22:07:54.268Z,7.01
2023-04-02T22:10:56.825Z,7.07
2023-04-02T22:13:59.780Z,6.95
2023-04-02T22:17:03.426Z,6.86
2023-04-02T22:20:06.493Z,6.86
2023-04-02T22:23:10.076Z,6.86
2023-04-02T22:26:13.008Z,6.89
2023-04-02T22:29:16.430Z,6.86
2023-04-02T22:32:18.765Z,6.85
2023-04-02T22:35:21.335Z,6.79
2023-04-02T22:38:25.868Z,6.74
2023-04-02T22:41:29.437Z,6.74
2023-04-02T22:44:31.960Z,6.73
2023-04-02T22:47:34.647Z,6.71
2023-04-02T22:50:37.225Z,6.64
2023-04-02T22:53:40.809Z,6.54
2023-04-02T22:56:43.190Z,6.53
2023-04-02T22:59:46.051Z,6.46
2023-04-02T23:02:48.602Z,6.51
2023-04-02T23:05:58.845Z,6.47
2023-04-02T23:09:01.232Z,6.41
2023-04-02T23:12:04.284Z,6.40
2023-04-02T23:15:06.965Z,6.34
2023-04-02T23:18:09.593Z,6.39
2023-04-02T23:21:11.994Z,6.40
2023-04-02T23:24:14.750Z,6.33
2023-04-02T23:27:17.263Z,6.38
2023-04-02T23:30:19.880Z,6.31
2023-04-02T23:33:22.238Z,6.34
2023-04-02T23:36:26.173Z,6.31
2023-04-02T23:39:29.653Z,6.29
2023-04-02T23:42:32.333Z,6.23
2023-04-02T23:45:34.926Z,6.24
2023-04-02T23:48:37.581Z,6.19
2023-04-02T23:51:40.733Z,6.22
2023-04-02T23:54:43.577Z,6.19
2023-04-02T23:57:46.239Z,6.15
